sensor_id;sensor_type;location;lat;lon;timestamp;pressure;altitude;pressure_sealevel;temperature;humidity
16613;BME280;8419;52.358;9.752;2023-05-16T00:00:13;100749.00;;;20.17;41.94
16613;BME280;8419;52.358;9.752;2023-05-16T00:03:03;100748.00;;;20.26;41.87
16613;BME280;8419;52.358;9.752;2023-05-16T00:05:48;100750.00;;;20.25;41.80
16613;BME280;8419;52.358;9.752;2023-05-16T00:08:34;100758.00;;;20.29;41.81
16613;BME280;8419;52.358;9.752;2023-05-16T00:11:20;100754.00;;;20.36;41.75
16613;BME280;8419;52.358;9.752;2023-05-16T00:14:05;100751.00;;;20.34;41.66
16613;BME280;8419;52.358;9.752;2023-05-16T00:16:54;100753.00;;;20.32;41.71
16613;BME280;8419;52.358;9.752;2023-05-16T00:19:42;100758.00;;;20.39;41.63
16613;BME280;8419;52.358;9.752;2023-05-16T00:22:29;100757.00;;;20.38;41.58
16613;BME280;8419;52.358;9.752;2023-05-16T00:25:15;100752.00;;;20.40;41.57
16613;BME280;8419;52.358;9.752;2023-05-16T00:28:00;100756.00;;;20.50;41.27
16613;BME280;8419;52.358;9.752;2023-05-16T00:30:47;100757.00;;;20.29;41.56
16613;BME280;8419;52.358;9.752;2023-05-16T00:33:33;100755.00;;;20.27;41.62
16613;BME280;8419;52.358;9.752;2023-05-16T00:36:19;100752.00;;;20.26;41.72
16613;BME280;8419;52.358;9.752;2023-05-16T00:39:05;100757.00;;;20.25;41.73
16613;BME280;8419;52.358;9.752;2023-05-16T00:41:55;100754.00;;;20.24;41.77
16613;BME280;8419;52.358;9.752;2023-05-16T00:44:45;100749.00;;;20.14;41.82
16613;BME280;8419;52.358;9.752;2023-05-16T00:47:30;100756.00;;;20.10;41.91
16613;BME280;8419;52.358;9.752;2023-05-16T00:50:16;100757.00;;;20.12;41.96
16613;BME280;8419;52.358;9.752;2023-05-16T00:53:02;100757.00;;;20.16;41.89
16613;BME280;8419;52.358;9.752;2023-05-16T00:55:47;100754.00;;;20.17;41.88
16613;BME280;8419;52.358;9.752;2023-05-16T00:58:33;100760.00;;;20.21;41.85
16613;BME280;8419;52.358;9.752;2023-05-16T01:01:20;100769.00;;;20.33;41.63
16613;BME280;8419;52.358;9.752;2023-05-16T01:04:08;100765.00;;;20.17;41.84
16613;BME280;8419;52.358;9.752;2023-05-16T01:06:54;100760.00;;;20.16;41.77
16613;BME280;8419;52.358;9.752;2023-05-16T01:09:41;100760.00;;;20.21;41.71
16613;BME280;8419;52.358;9.752;2023-05-16T01:12:33;100755.00;;;20.18;41.66
16613;BME280;8419;52.358;9.752;2023-05-16T01:15:27;100755.00;;;20.19;41.62
16613;BME280;8419;52.358;9.752;2023-05-16T01:18:23;100767.00;;;20.22;41.48
16613;BME280;8419;52.358;9.752;2023-05-16T01:21:17;100761.00;;;20.18;41.46
16613;BME280;8419;52.358;9.752;2023-05-16T01:24:13;100769.00;;;20.18;41.44
16613;BME280;8419;52.358;9.752;2023-05-16T01:27:09;100773.00;;;20.24;41.39
16613;BME280;8419;52.358;9.752;2023-05-16T01:29:56;100766.00;;;20.25;41.35
16613;BME280;8419;52.358;9.752;2023-05-16T01:32:42;100766.00;;;20.23;41.27
16613;BME280;8419;52.358;9.752;2023-05-16T01:35:28;100762.00;;;20.17;41.22
16613;BME280;8419;52.358;9.752;2023-05-16T01:38:20;100769.00;;;20.13;41.23
16613;BME280;8419;52.358;9.752;2023-05-16T01:41:17;100763.00;;;20.10;41.32
16613;BME280;8419;52.358;9.752;2023-05-16T01:44:10;100759.00;;;20.09;41.33
16613;BME280;8419;52.358;9.752;2023-05-16T01:47:00;100755.00;;;20.13;41.23
16613;BME280;8419;52.358;9.752;2023-05-16T01:49:59;100761.00;;;20.16;41.17
16613;BME280;8419;52.358;9.752;2023-05-16T01:52:52;100759.00;;;20.27;41.03
16613;BME280;8419;52.358;9.752;2023-05-16T01:55:43;100765.00;;;20.19;41.07
16613;BME280;8419;52.358;9.752;2023-05-16T01:58:32;100770.00;;;20.17;41.07
16613;BME280;8419;52.358;9.752;2023-05-16T02:01:18;100765.00;;;20.12;41.07
16613;BME280;8419;52.358;9.752;2023-05-16T02:04:04;100775.00;;;20.18;40.88
16613;BME280;8419;52.358;9.752;2023-05-16T02:06:50;100775.00;;;20.22;40.73
16613;BME280;8419;52.358;9.752;2023-05-16T02:09:36;100767.00;;;20.22;40.68
16613;BME280;8419;52.358;9.752;2023-05-16T02:12:21;100765.00;;;20.21;40.67
16613;BME280;8419;52.358;9.752;2023-05-16T02:15:09;100774.00;;;20.25;40.65
16613;BME280;8419;52.358;9.752;2023-05-16T02:17:56;100769.00;;;20.23;40.69
16613;BME280;8419;52.358;9.752;2023-05-16T02:20:42;100777.00;;;20.13;40.95
16613;BME280;8419;52.358;9.752;2023-05-16T02:23:27;100774.00;;;20.10;41.02
16613;BME280;8419;52.358;9.752;2023-05-16T02:26:13;100771.00;;;20.11;40.93
16613;BME280;8419;52.358;9.752;2023-05-16T02:28:58;100771.00;;;20.05;41.03
16613;BME280;8419;52.358;9.752;2023-05-16T02:31:44;100769.00;;;20.02;40.99
16613;BME280;8419;52.358;9.752;2023-05-16T02:34:30;100776.00;;;20.05;40.93
16613;BME280;8419;52.358;9.752;2023-05-16T02:37:16;100768.00;;;20.00;40.87
16613;BME280;8419;52.358;9.752;2023-05-16T02:40:05;100775.00;;;20.01;40.84
16613;BME280;8419;52.358;9.752;2023-05-16T02:42:53;100780.00;;;19.97;40.86
16613;BME280;8419;52.358;9.752;2023-05-16T02:45:39;100782.00;;;20.08;40.63
16613;BME280;8419;52.358;9.752;2023-05-16T02:48:25;100784.00;;;19.97;40.89
16613;BME280;8419;52.358;9.752;2023-05-16T02:51:10;100784.00;;;19.86;41.07
16613;BME280;8419;52.358;9.752;2023-05-16T02:53:57;100780.00;;;19.82;41.21
16613;BME280;8419;52.358;9.752;2023-05-16T02:56:43;100783.00;;;19.70;41.48
16613;BME280;8419;52.358;9.752;2023-05-16T02:59:30;100792.00;;;19.55;41.79
16613;BME280;8419;52.358;9.752;2023-05-16T03:02:16;100792.00;;;19.47;42.04
16613;BME280;8419;52.358;9.752;2023-05-16T03:05:03;100791.00;;;19.38;42.29
16613;BME280;8419;52.358;9.752;2023-05-16T03:07:49;100806.00;;;19.39;42.31
16613;BME280;8419;52.358;9.752;2023-05-16T03:10:34;100806.00;;;19.46;42.28
16613;BME280;8419;52.358;9.752;2023-05-16T03:13:21;100814.00;;;19.41;42.43
16613;BME280;8419;52.358;9.752;2023-05-16T03:16:07;100810.00;;;19.41;42.50
16613;BME280;8419;52.358;9.752;2023-05-16T03:18:52;100817.00;;;19.43;42.47
16613;BME280;8419;52.358;9.752;2023-05-16T03:21:37;100817.00;;;19.27;42.73
16613;BME280;8419;52.358;9.752;2023-05-16T03:24:22;100822.00;;;19.30;42.72
16613;BME280;8419;52.358;9.752;2023-05-16T03:27:10;100822.00;;;19.33;42.70
16613;BME280;8419;52.358;9.752;2023-05-16T03:29:55;100826.00;;;19.42;42.62
16613;BME280;8419;52.358;9.752;2023-05-16T03:32:41;100831.00;;;19.51;42.40
16613;BME280;8419;52.358;9.752;2023-05-16T03:35:29;100849.00;;;19.52;42.42
16613;BME280;8419;52.358;9.752;2023-05-16T03:38:14;100842.00;;;19.56;42.37
16613;BME280;8419;52.358;9.752;2023-05-16T03:41:01;100838.00;;;19.60;42.38
16613;BME280;8419;52.358;9.752;2023-05-16T03:43:47;100839.00;;;19.59;42.33
16613;BME280;8419;52.358;9.752;2023-05-16T03:46:32;100844.00;;;19.53;42.39
16613;BME280;8419;52.358;9.752;2023-05-16T03:49:19;100844.00;;;19.59;42.25
16613;BME280;8419;52.358;9.752;2023-05-16T03:52:05;100850.00;;;19.27;42.82
16613;BME280;8419;52.358;9.752;2023-05-16T03:54:52;100855.00;;;19.37;42.62
16613;BME280;8419;52.358;9.752;2023-05-16T03:57:37;100843.00;;;19.55;42.22
16613;BME280;8419;52.358;9.752;2023-05-16T04:00:24;100846.00;;;19.64;42.01
16613;BME280;8419;52.358;9.752;2023-05-16T04:03:13;100844.00;;;19.52;42.13
16613;BME280;8419;52.358;9.752;2023-05-16T04:05:59;100844.00;;;19.59;42.04
16613;BME280;8419;52.358;9.752;2023-05-16T04:08:46;100850.00;;;19.50;42.11
16613;BME280;8419;52.358;9.752;2023-05-16T04:11:32;100852.00;;;19.38;42.15
16613;BME280;8419;52.358;9.752;2023-05-16T04:14:18;100865.00;;;19.36;42.08
16613;BME280;8419;52.358;9.752;2023-05-16T04:17:04;100865.00;;;19.36;42.01
16613;BME280;8419;52.358;9.752;2023-05-16T04:19:49;100860.00;;;19.30;42.15
16613;BME280;8419;52.358;9.752;2023-05-16T04:22:35;100872.00;;;19.34;42.05
16613;BME280;8419;52.358;9.752;2023-05-16T04:25:20;100873.00;;;19.35;41.93
16613;BME280;8419;52.358;9.752;2023-05-16T04:28:06;100876.00;;;19.27;42.01
16613;BME280;8419;52.358;9.752;2023-05-16T04:30:53;100872.00;;;19.29;41.97
16613;BME280;8419;52.358;9.752;2023-05-16T04:33:38;100870.00;;;19.39;41.80
16613;BME280;8419;52.358;9.752;2023-05-16T04:36:23;100875.00;;;19.33;41.88
16613;BME280;8419;52.358;9.752;2023-05-16T04:39:08;100867.00;;;19.41;41.63
16613;BME280;8419;52.358;9.752;2023-05-16T04:41:53;100875.00;;;19.42;41.49
16613;BME280;8419;52.358;9.752;2023-05-16T04:44:42;100890.00;;;19.40;41.43
16613;BME280;8419;52.358;9.752;2023-05-16T04:47:28;100894.00;;;19.34;41.38
16613;BME280;8419;52.358;9.752;2023-05-16T04:50:13;100879.00;;;19.40;41.15
16613;BME280;8419;52.358;9.752;2023-05-16T04:52:59;100899.00;;;19.41;40.92
16613;BME280;8419;52.358;9.752;2023-05-16T04:55:45;100912.00;;;19.44;40.78
16613;BME280;8419;52.358;9.752;2023-05-16T04:58:31;100911.00;;;19.53;40.65
16613;BME280;8419;52.358;9.752;2023-05-16T05:01:17;100910.00;;;19.53;40.54
16613;BME280;8419;52.358;9.752;2023-05-16T05:04:05;100914.00;;;19.56;40.36
16613;BME280;8419;52.358;9.752;2023-05-16T05:06:50;100924.00;;;19.61;40.32
16613;BME280;8419;52.358;9.752;2023-05-16T05:09:36;100919.00;;;19.43;40.41
16613;BME280;8419;52.358;9.752;2023-05-16T05:12:21;100936.00;;;19.37;40.36
16613;BME280;8419;52.358;9.752;2023-05-16T05:15:08;100939.00;;;19.39;40.28
16613;BME280;8419;52.358;9.752;2023-05-16T05:17:54;100945.00;;;19.41;40.13
16613;BME280;8419;52.358;9.752;2023-05-16T05:20:40;100950.00;;;19.37;39.59
16613;BME280;8419;52.358;9.752;2023-05-16T05:23:26;100942.00;;;19.43;39.12
16613;BME280;8419;52.358;9.752;2023-05-16T05:26:11;100950.00;;;19.46;39.04
16613;BME280;8419;52.358;9.752;2023-05-16T05:28:57;100947.00;;;19.47;38.81
16613;BME280;8419;52.358;9.752;2023-05-16T05:31:42;100958.00;;;19.50;38.69
16613;BME280;8419;52.358;9.752;2023-05-16T05:34:28;100959.00;;;19.45;38.37
16613;BME280;8419;52.358;9.752;2023-05-16T05:37:17;100958.00;;;19.37;38.47
16613;BME280;8419;52.358;9.752;2023-05-16T05:40:02;100965.00;;;19.45;38.33
16613;BME280;8419;52.358;9.752;2023-05-16T05:42:48;100968.00;;;19.41;38.38
16613;BME280;8419;52.358;9.752;2023-05-16T05:45:34;100980.00;;;19.46;38.27
16613;BME280;8419;52.358;9.752;2023-05-16T05:48:19;100982.00;;;19.52;38.27
16613;BME280;8419;52.358;9.752;2023-05-16T05:51:05;100991.00;;;19.51;38.07
16613;BME280;8419;52.358;9.752;2023-05-16T05:53:50;101002.00;;;19.54;37.76
16613;BME280;8419;52.358;9.752;2023-05-16T05:56:36;100992.00;;;19.48;37.66
16613;BME280;8419;52.358;9.752;2023-05-16T05:59:21;100995.00;;;19.69;37.25
16613;BME280;8419;52.358;9.752;2023-05-16T06:02:07;101009.00;;;19.68;37.11
16613;BME280;8419;52.358;9.752;2023-05-16T06:04:52;101012.00;;;19.54;37.19
16613;BME280;8419;52.358;9.752;2023-05-16T06:07:38;101024.00;;;19.51;36.80
16613;BME280;8419;52.358;9.752;2023-05-16T06:10:26;101022.00;;;19.50;36.75
16613;BME280;8419;52.358;9.752;2023-05-16T06:13:15;101032.00;;;19.45;36.60
16613;BME280;8419;52.358;9.752;2023-05-16T06:16:01;101036.00;;;19.23;36.87
16613;BME280;8419;52.358;9.752;2023-05-16T06:18:46;101046.00;;;19.32;36.72
16613;BME280;8419;52.358;9.752;2023-05-16T06:21:32;101045.00;;;19.48;36.66
16613;BME280;8419;52.358;9.752;2023-05-16T06:24:17;101040.00;;;19.54;36.39
16613;BME280;8419;52.358;9.752;2023-05-16T06:27:07;101039.00;;;19.61;36.15
16613;BME280;8419;52.358;9.752;2023-05-16T06:29:54;101045.00;;;19.51;36.40
16613;BME280;8419;52.358;9.752;2023-05-16T06:32:39;101052.00;;;19.52;36.45
16613;BME280;8419;52.358;9.752;2023-05-16T06:35:25;101039.00;;;19.57;36.14
16613;BME280;8419;52.358;9.752;2023-05-16T06:38:11;101043.00;;;19.56;36.20
16613;BME280;8419;52.358;9.752;2023-05-16T06:40:56;101044.00;;;19.63;36.04
16613;BME280;8419;52.358;9.752;2023-05-16T06:43:42;101051.00;;;19.50;36.13
16613;BME280;8419;52.358;9.752;2023-05-16T06:46:28;101048.00;;;19.53;35.89
16613;BME280;8419;52.358;9.752;2023-05-16T06:49:14;101050.00;;;19.68;35.77
16613;BME280;8419;52.358;9.752;2023-05-16T06:52:00;101039.00;;;19.65;35.68
16613;BME280;8419;52.358;9.752;2023-05-16T06:54:46;101055.00;;;19.63;35.60
16613;BME280;8419;52.358;9.752;2023-05-16T06:57:32;101072.00;;;19.59;35.43
16613;BME280;8419;52.358;9.752;2023-05-16T07:00:20;101059.00;;;19.56;35.22
16613;BME280;8419;52.358;9.752;2023-05-16T07:03:06;101055.00;;;19.63;35.09
16613;BME280;8419;52.358;9.752;2023-05-16T07:05:52;101060.00;;;19.68;34.70
16613;BME280;8419;52.358;9.752;2023-05-16T07:08:37;101060.00;;;19.73;34.13
16613;BME280;8419;52.358;9.752;2023-05-16T07:11:25;101059.00;;;19.74;33.59
16613;BME280;8419;52.358;9.752;2023-05-16T07:14:10;101067.00;;;19.90;33.58
16613;BME280;8419;52.358;9.752;2023-05-16T07:16:56;101063.00;;;20.11;33.40
16613;BME280;8419;52.358;9.752;2023-05-16T07:19:42;101054.00;;;20.30;33.28
16613;BME280;8419;52.358;9.752;2023-05-16T07:22:27;101066.00;;;20.27;33.00
16613;BME280;8419;52.358;9.752;2023-05-16T07:25:13;101072.00;;;20.31;32.90
16613;BME280;8419;52.358;9.752;2023-05-16T07:28:00;101066.00;;;20.35;32.79
16613;BME280;8419;52.358;9.752;2023-05-16T07:30:46;101068.00;;;20.35;32.76
16613;BME280;8419;52.358;9.752;2023-05-16T07:33:31;101069.00;;;20.38;32.83
16613;BME280;8419;52.358;9.752;2023-05-16T07:36:17;101073.00;;;20.41;32.69
16613;BME280;8419;52.358;9.752;2023-05-16T07:39:04;101074.00;;;20.64;32.26
16613;BME280;8419;52.358;9.752;2023-05-16T07:41:49;101076.00;;;20.52;31.59
16613;BME280;8419;52.358;9.752;2023-05-16T07:44:35;101073.00;;;20.57;31.28
16613;BME280;8419;52.358;9.752;2023-05-16T07:47:21;101075.00;;;20.65;30.55
16613;BME280;8419;52.358;9.752;2023-05-16T07:50:09;101080.00;;;20.56;30.45
16613;BME280;8419;52.358;9.752;2023-05-16T07:52:54;101076.00;;;20.51;30.39
16613;BME280;8419;52.358;9.752;2023-05-16T07:55:39;101070.00;;;20.52;30.54
16613;BME280;8419;52.358;9.752;2023-05-16T07:58:25;101081.00;;;20.62;30.43
16613;BME280;8419;52.358;9.752;2023-05-16T08:01:10;101076.00;;;20.69;30.49
16613;BME280;8419;52.358;9.752;2023-05-16T08:03:56;101091.00;;;20.87;30.56
16613;BME280;8419;52.358;9.752;2023-05-16T08:06:42;101085.00;;;20.94;30.44
16613;BME280;8419;52.358;9.752;2023-05-16T08:09:27;101089.00;;;20.86;30.37
16613;BME280;8419;52.358;9.752;2023-05-16T08:12:12;101098.00;;;20.75;30.56
16613;BME280;8419;52.358;9.752;2023-05-16T08:14:57;101098.00;;;20.72;30.61
16613;BME280;8419;52.358;9.752;2023-05-16T08:17:43;101096.00;;;20.77;30.39
16613;BME280;8419;52.358;9.752;2023-05-16T08:20:29;101093.00;;;20.94;30.18
16613;BME280;8419;52.358;9.752;2023-05-16T08:23:15;101083.00;;;21.08;30.10
16613;BME280;8419;52.358;9.752;2023-05-16T08:26:00;101088.00;;;21.24;29.71
16613;BME280;8419;52.358;9.752;2023-05-16T08:28:47;101094.00;;;21.27;29.31
16613;BME280;8419;52.358;9.752;2023-05-16T08:31:33;101090.00;;;21.31;28.84
16613;BME280;8419;52.358;9.752;2023-05-16T08:34:19;101085.00;;;21.31;28.74
16613;BME280;8419;52.358;9.752;2023-05-16T08:37:05;101105.00;;;21.27;28.88
16613;BME280;8419;52.358;9.752;2023-05-16T08:39:50;101101.00;;;21.46;28.54
16613;BME280;8419;52.358;9.752;2023-05-16T08:42:40;101095.00;;;21.47;28.44
16613;BME280;8419;52.358;9.752;2023-05-16T08:45:26;101092.00;;;21.26;28.58
16613;BME280;8419;52.358;9.752;2023-05-16T08:48:14;101097.00;;;21.03;28.52
16613;BME280;8419;52.358;9.752;2023-05-16T08:51:02;101098.00;;;20.97;28.54
16613;BME280;8419;52.358;9.752;2023-05-16T08:53:56;101099.00;;;21.08;28.59
16613;BME280;8419;52.358;9.752;2023-05-16T08:56:44;101096.00;;;21.18;28.64
16613;BME280;8419;52.358;9.752;2023-05-16T08:59:30;101087.00;;;21.42;28.48
16613;BME280;8419;52.358;9.752;2023-05-16T09:02:17;101089.00;;;21.66;28.34
16613;BME280;8419;52.358;9.752;2023-05-16T09:05:04;101092.00;;;21.87;28.14
16613;BME280;8419;52.358;9.752;2023-05-16T09:07:52;101096.00;;;21.83;28.11
16613;BME280;8419;52.358;9.752;2023-05-16T09:10:38;101097.00;;;21.64;28.31
16613;BME280;8419;52.358;9.752;2023-05-16T09:13:25;101107.00;;;21.54;28.46
16613;BME280;8419;52.358;9.752;2023-05-16T09:16:13;101089.00;;;21.55;28.37
16613;BME280;8419;52.358;9.752;2023-05-16T09:19:00;101099.00;;;21.59;28.40
16613;BME280;8419;52.358;9.752;2023-05-16T09:21:46;101095.00;;;21.62;28.24
16613;BME280;8419;52.358;9.752;2023-05-16T09:24:31;101090.00;;;21.86;27.92
16613;BME280;8419;52.358;9.752;2023-05-16T09:27:20;101093.00;;;21.97;27.49
16613;BME280;8419;52.358;9.752;2023-05-16T09:30:09;101096.00;;;22.05;27.36
16613;BME280;8419;52.358;9.752;2023-05-16T09:32:54;101091.00;;;21.96;26.97
16613;BME280;8419;52.358;9.752;2023-05-16T09:35:40;101093.00;;;22.05;26.41
16613;BME280;8419;52.358;9.752;2023-05-16T09:38:26;101096.00;;;22.05;25.94
16613;BME280;8419;52.358;9.752;2023-05-16T09:41:12;101104.00;;;22.10;25.97
16613;BME280;8419;52.358;9.752;2023-05-16T09:43:58;101091.00;;;22.22;25.73
16613;BME280;8419;52.358;9.752;2023-05-16T09:46:45;101097.00;;;22.61;25.54
16613;BME280;8419;52.358;9.752;2023-05-16T09:49:30;101098.00;;;22.71;25.32
16613;BME280;8419;52.358;9.752;2023-05-16T09:52:16;101095.00;;;22.54;25.62
16613;BME280;8419;52.358;9.752;2023-05-16T09:55:03;101100.00;;;22.21;25.85
16613;BME280;8419;52.358;9.752;2023-05-16T09:57:50;101103.00;;;22.06;26.01
16613;BME280;8419;52.358;9.752;2023-05-16T10:00:37;101100.00;;;22.17;26.15
16613;BME280;8419;52.358;9.752;2023-05-16T10:03:24;101085.00;;;22.35;25.44
16613;BME280;8419;52.358;9.752;2023-05-16T10:06:10;101092.00;;;22.61;25.40
16613;BME280;8419;52.358;9.752;2023-05-16T10:08:57;101074.00;;;23.02;24.91
16613;BME280;8419;52.358;9.752;2023-05-16T10:11:44;101084.00;;;23.14;24.77
16613;BME280;8419;52.358;9.752;2023-05-16T10:14:33;101073.00;;;22.91;24.76
16613;BME280;8419;52.358;9.752;2023-05-16T10:17:19;101085.00;;;22.63;24.94
16613;BME280;8419;52.358;9.752;2023-05-16T10:20:10;101072.00;;;22.87;24.42
16613;BME280;8419;52.358;9.752;2023-05-16T10:22:57;101064.00;;;23.15;24.18
16613;BME280;8419;52.358;9.752;2023-05-16T10:25:44;101074.00;;;23.32;23.82
16613;BME280;8419;52.358;9.752;2023-05-16T10:28:30;101067.00;;;23.34;23.63
16613;BME280;8419;52.358;9.752;2023-05-16T10:31:18;101078.00;;;22.95;23.96
16613;BME280;8419;52.358;9.752;2023-05-16T10:34:10;101074.00;;;22.69;24.57
16613;BME280;8419;52.358;9.752;2023-05-16T10:36:56;101068.00;;;22.93;24.63
16613;BME280;8419;52.358;9.752;2023-05-16T10:39:42;101080.00;;;22.92;24.66
16613;BME280;8419;52.358;9.752;2023-05-16T10:42:28;101073.00;;;22.88;24.72
16613;BME280;8419;52.358;9.752;2023-05-16T10:45:17;101070.00;;;22.95;24.11
16613;BME280;8419;52.358;9.752;2023-05-16T10:48:05;101066.00;;;23.06;23.74
16613;BME280;8419;52.358;9.752;2023-05-16T10:50:52;101076.00;;;23.35;23.36
16613;BME280;8419;52.358;9.752;2023-05-16T10:53:38;101079.00;;;23.65;22.93
16613;BME280;8419;52.358;9.752;2023-05-16T10:56:25;101072.00;;;23.68;22.84
16613;BME280;8419;52.358;9.752;2023-05-16T10:59:22;101066.00;;;23.45;23.20
16613;BME280;8419;52.358;9.752;2023-05-16T11:02:23;101073.00;;;23.52;23.28
16613;BME280;8419;52.358;9.752;2023-05-16T11:05:16;101069.00;;;23.64;22.86
16613;BME280;8419;52.358;9.752;2023-05-16T11:08:04;101074.00;;;23.84;22.50
16613;BME280;8419;52.358;9.752;2023-05-16T11:11:38;101071.00;;;24.00;22.31
16613;BME280;8419;52.358;9.752;2023-05-16T11:14:26;101073.00;;;23.92;22.44
16613;BME280;8419;52.358;9.752;2023-05-16T11:17:14;101068.00;;;23.94;22.23
16613;BME280;8419;52.358;9.752;2023-05-16T11:20:00;101067.00;;;24.04;22.14
16613;BME280;8419;52.358;9.752;2023-05-16T11:22:48;101069.00;;;24.09;21.83
16613;BME280;8419;52.358;9.752;2023-05-16T11:25:36;101078.00;;;24.00;21.98
16613;BME280;8419;52.358;9.752;2023-05-16T11:28:26;101074.00;;;23.84;22.21
16613;BME280;8419;52.358;9.752;2023-05-16T11:31:11;101080.00;;;23.78;22.23
16613;BME280;8419;52.358;9.752;2023-05-16T11:33:58;101075.00;;;23.60;22.40
16613;BME280;8419;52.358;9.752;2023-05-16T11:36:44;101084.00;;;23.43;22.89
16613;BME280;8419;52.358;9.752;2023-05-16T11:39:31;101088.00;;;23.58;23.08
16613;BME280;8419;52.358;9.752;2023-05-16T11:42:16;101081.00;;;23.94;23.06
16613;BME280;8419;52.358;9.752;2023-05-16T11:45:07;101076.00;;;24.19;22.86
16613;BME280;8419;52.358;9.752;2023-05-16T11:47:52;101075.00;;;24.28;22.76
16613;BME280;8419;52.358;9.752;2023-05-16T11:50:38;101084.00;;;24.81;22.47
16613;BME280;8419;52.358;9.752;2023-05-16T11:53:23;101094.00;;;24.84;22.26
16613;BME280;8419;52.358;9.752;2023-05-16T11:56:09;101077.00;;;24.90;22.04
16613;BME280;8419;52.358;9.752;2023-05-16T11:58:55;101090.00;;;25.17;21.67
16613;BME280;8419;52.358;9.752;2023-05-16T12:01:41;101081.00;;;25.31;21.38
16613;BME280;8419;52.358;9.752;2023-05-16T12:04:27;101075.00;;;25.57;21.27
16613;BME280;8419;52.358;9.752;2023-05-16T12:07:12;101090.00;;;25.98;21.10
16613;BME280;8419;52.358;9.752;2023-05-16T12:09:58;101084.00;;;25.85;21.10
16613;BME280;8419;52.358;9.752;2023-05-16T12:12:46;101091.00;;;26.02;21.02
16613;BME280;8419;52.358;9.752;2023-05-16T12:15:33;101092.00;;;26.69;20.56
16613;BME280;8419;52.358;9.752;2023-05-16T12:18:19;101087.00;;;27.11;20.22
16613;BME280;8419;52.358;9.752;2023-05-16T12:21:05;101093.00;;;27.10;19.79
16613;BME280;8419;52.358;9.752;2023-05-16T12:23:54;101093.00;;;27.67;19.39
16613;BME280;8419;52.358;9.752;2023-05-16T12:26:42;101098.00;;;27.62;19.49
16613;BME280;8419;52.358;9.752;2023-05-16T12:29:30;101094.00;;;27.86;19.20
16613;BME280;8419;52.358;9.752;2023-05-16T12:32:18;101087.00;;;28.07;19.14
16613;BME280;8419;52.358;9.752;2023-05-16T12:35:04;101082.00;;;28.18;19.31
16613;BME280;8419;52.358;9.752;2023-05-16T12:37:51;101076.00;;;28.90;18.78
16613;BME280;8419;52.358;9.752;2023-05-16T12:40:37;101090.00;;;29.46;17.91
16613;BME280;8419;52.358;9.752;2023-05-16T12:43:23;101087.00;;;29.88;17.56
16613;BME280;8419;52.358;9.752;2023-05-16T12:46:10;101063.00;;;29.07;17.60
16613;BME280;8419;52.358;9.752;2023-05-16T12:49:01;101115.00;;;27.56;18.97
16613;BME280;8419;52.358;9.752;2023-05-16T12:51:51;101103.00;;;26.79;20.09
16613;BME280;8419;52.358;9.752;2023-05-16T12:54:36;101104.00;;;26.32;20.82
16613;BME280;8419;52.358;9.752;2023-05-16T12:57:22;101116.00;;;26.01;21.26
16613;BME280;8419;52.358;9.752;2023-05-16T13:00:09;101118.00;;;25.69;21.55
16613;BME280;8419;52.358;9.752;2023-05-16T13:02:55;101119.00;;;25.55;21.75
16613;BME280;8419;52.358;9.752;2023-05-16T13:05:41;101121.00;;;25.31;21.96
16613;BME280;8419;52.358;9.752;2023-05-16T13:08:27;101116.00;;;25.04;22.17
16613;BME280;8419;52.358;9.752;2023-05-16T13:11:13;101120.00;;;24.93;22.15
16613;BME280;8419;52.358;9.752;2023-05-16T13:13:58;101117.00;;;25.17;21.87
16613;BME280;8419;52.358;9.752;2023-05-16T13:16:44;101122.00;;;27.00;20.47
16613;BME280;8419;52.358;9.752;2023-05-16T13:19:30;101128.00;;;28.36;19.14
16613;BME280;8419;52.358;9.752;2023-05-16T13:22:15;101126.00;;;27.51;19.39
16613;BME280;8419;52.358;9.752;2023-05-16T13:25:01;101121.00;;;26.09;20.70
16613;BME280;8419;52.358;9.752;2023-05-16T13:27:48;101124.00;;;25.54;21.28
16613;BME280;8419;52.358;9.752;2023-05-16T13:30:34;101134.00;;;26.53;20.61
16613;BME280;8419;52.358;9.752;2023-05-16T13:33:19;101124.00;;;27.33;19.64
16613;BME280;8419;52.358;9.752;2023-05-16T13:36:07;101120.00;;;26.90;19.67
16613;BME280;8419;52.358;9.752;2023-05-16T13:38:52;101110.00;;;27.50;19.22
16613;BME280;8419;52.358;9.752;2023-05-16T13:41:39;101114.00;;;28.79;17.76
16613;BME280;8419;52.358;9.752;2023-05-16T13:44:26;101125.00;;;30.26;16.81
16613;BME280;8419;52.358;9.752;2023-05-16T13:47:12;101119.00;;;29.77;17.27
16613;BME280;8419;52.358;9.752;2023-05-16T13:49:59;101121.00;;;30.16;17.20
16613;BME280;8419;52.358;9.752;2023-05-16T13:52:51;101121.00;;;29.39;17.82
16613;BME280;8419;52.358;9.752;2023-05-16T13:55:37;101127.00;;;28.44;18.63
16613;BME280;8419;52.358;9.752;2023-05-16T13:58:22;101132.00;;;29.22;17.88
16613;BME280;8419;52.358;9.752;2023-05-16T14:01:09;101128.00;;;29.76;17.26
16613;BME280;8419;52.358;9.752;2023-05-16T14:03:55;101127.00;;;29.46;17.29
16613;BME280;8419;52.358;9.752;2023-05-16T14:06:40;101138.00;;;27.99;18.46
16613;BME280;8419;52.358;9.752;2023-05-16T14:09:26;101130.00;;;27.48;19.06
16613;BME280;8419;52.358;9.752;2023-05-16T14:12:11;101136.00;;;26.78;19.54
16613;BME280;8419;52.358;9.752;2023-05-16T14:14:56;101146.00;;;25.99;20.22
16613;BME280;8419;52.358;9.752;2023-05-16T14:17:43;101147.00;;;25.46;20.78
16613;BME280;8419;52.358;9.752;2023-05-16T14:20:29;101148.00;;;25.08;21.17
16613;BME280;8419;52.358;9.752;2023-05-16T14:23:17;101162.00;;;24.84;21.48
16613;BME280;8419;52.358;9.752;2023-05-16T14:26:05;101172.00;;;24.76;21.66
16613;BME280;8419;52.358;9.752;2023-05-16T14:28:51;101166.00;;;24.91;21.53
16613;BME280;8419;52.358;9.752;2023-05-16T14:31:37;101178.00;;;24.59;21.63
16613;BME280;8419;52.358;9.752;2023-05-16T14:34:23;101175.00;;;24.53;21.60
16613;BME280;8419;52.358;9.752;2023-05-16T14:37:10;101176.00;;;24.36;21.56
16613;BME280;8419;52.358;9.752;2023-05-16T14:39:56;101177.00;;;23.63;22.24
16613;BME280;8419;52.358;9.752;2023-05-16T14:42:41;101187.00;;;23.64;22.16